• Join FlightAware (Why Join?)
  • Login
  • US Flag 
12:36PM EDT


 

Airport Tracker/Info


-or-


 

Live Flight TrackerFlight Track Log ✈ RPA3457 ✈ 16-Apr-2013 ✈ KBTV - KDCA

Flight Track Log - Related Links

Times and Time Zones

All times are in EDT time to prevent confusion due to time zone crossing. See the RPA3457 flight status page for this flight to view local times or setup timezone preferences in your user account.

Time Position Orientation Groundspeed Altitude Reporting Facility
EDT Latitude Longitude Course Direction KTS MPH feet Rate Location/Type
07:59AM 44.1650 -73.2632 195° South  Level FlightAware Approximate
07:59AM 44.3089 -73.1797 198° South 245 282 9,700  Level Boston Center
08:00AM 44.0638 -73.3009 194° South  Level FlightAware Approximate
08:00AM 44.2400 -73.2081 196° South 258 297 10,100  Level Boston Center
08:01AM 43.9620 -73.3349 194° South  Level FlightAware Approximate
08:01AM 44.1608 -73.2214 187° South 279 321 13,100  Level Boston Center
08:02AM 43.8606 -73.3711 195° South  Level FlightAware Approximate
08:02AM 44.0772 -73.2319 185° South 296 341 15,900  Level Boston Center
08:03AM 43.7595 -73.4090 195° South  Level FlightAware Approximate
08:03AM 43.9897 -73.2453 186° South 307 353 17,900  Level Boston Center
08:04AM 43.6584 -73.4469 195° South  Level FlightAware Approximate
08:04AM 43.8917 -73.2583 185° South 340 391 20,200  Level Boston Center
08:05AM 43.5588 -73.4915 198° South  Level FlightAware Approximate
08:05AM 43.7978 -73.2686 185° South 351 404 22,400  Level Boston Center
08:06AM 43.6936 -73.2842 186° South 361 415 24,100 1,740 Climbing Boston Center
08:07AM 43.5975 -73.2972 186° South 380 437 25,900 1,740 Climbing Boston Center
08:08AM 43.4892 -73.3100 185° South 386 444 27,500 1,560 Climbing Boston Center
08:09AM 43.3681 -73.3283 186° South 392 451 29,000 1,260 Climbing Boston Center
08:10AM 43.2533 -73.3408 185° South 404 465 30,100 1,080 Climbing Boston Center
08:11AM 43.1617 -73.3539 186° South 416 479 31,300 900 Climbing Boston Center
08:12AM 43.0511 -73.3750 188° South 428 493 32,000 300 Climbing Boston Center
08:14AM 42.9172 -73.4097 191° South 428 493 32,000  Level Boston Center
08:15AM 42.7772 -73.4442 190° South 415 478 32,100 300 Climbing Boston Center
08:16AM 42.6644 -73.4706 190° South 410 472 32,700 720 Climbing Boston Center
08:17AM 42.5581 -73.4942 189° South 416 479 33,700 600 Climbing Boston Center
08:18AM 42.4244 -73.5231 189° South 416 479 34,000 120 Climbing Boston Center
08:19AM 42.3139 -73.5378 186° South 416 479 34,000  Level Boston Center
08:20AM 42.2011 -73.5667 191° South 410 472 34,000  Level Boston Center
08:21AM 42.0842 -73.5786 184° South 415 478 34,000 -60 Level Boston Center
08:22AM 41.9614 -73.5681 176° South 427 491 33,900 -480 Descending Boston Center
08:23AM 41.8425 -73.5575 176° South 427 491 33,100 -840 Descending Boston Center
08:24AM 41.7281 -73.5472 176° South 427 491 32,300 -840 Descending Boston Center
08:25AM 41.6114 -73.5369 176° South 422 486 31,500 -840 Descending Boston Center
08:26AM 41.4506 -73.5972 196° South 410 472 30,200 -900 Descending New York Center
08:27AM 41.3531 -73.6650 208° Southwest 399 459 29,300 -900 Descending New York Center
08:28AM 41.2558 -73.7297 207° Southwest 399 459 28,500 -720 Descending New York Center
08:29AM 41.1603 -73.8025 210° Southwest 399 459 28,000 -300 Descending New York Center
08:30AM 41.0886 -73.9094 228° Southwest 394 453 28,000  Level New York Center
08:31AM 41.0211 -74.0219 232° Southwest 389 448 28,000  Level New York Center
08:32AM 40.9556 -74.1314 232° Southwest 395 455 28,000  Level New York Center
08:33AM 40.8814 -74.2483 230° Southwest 389 448 28,000  Level New York Center
08:34AM 40.8178 -74.3547 232° Southwest 389 448 28,000  Level New York Center
08:35AM 40.7561 -74.4611 233° Southwest 383 441 28,000  Level New York Center
08:36AM 40.6903 -74.5644 230° Southwest 378 435 28,000  Level New York Center
08:37AM 40.6386 -74.6792 239° Southwest 373 429 28,000 -120 Level New York Center
08:38AM 40.5931 -74.7939 242° Southwest 368 423 27,800 -480 Descending New York Center
08:39AM 40.5414 -74.9056 239° Southwest 362 417 27,100 -780 Descending New York Center
08:40AM 40.4650 -74.9967 222° Southwest 362 417 26,300 -840 Descending New York Center
08:41AM 40.3931 -75.0875 224° Southwest 367 422 25,500 -840 Descending New York Center
08:42AM 40.3186 -75.1808 224° Southwest 367 422 24,700 -840 Descending New York Center
08:43AM 40.2486 -75.2717 225° Southwest 367 422 23,900 -840 Descending New York Center
08:44AM 40.1764 -75.3619 224° Southwest 367 422 23,100 -840 Descending New York Center
08:45AM 40.1064 -75.4469 223° Southwest 367 422 22,300 -600 Descending New York Center
08:46AM 40.0361 -75.5317 223° Southwest 361 415 22,000 -180 Descending New York Center
08:47AM 39.9725 -75.6086 223° Southwest 355 409 22,000  Level New York Center
08:48AM 39.9086 -75.6961 226° Southwest 350 403 22,000 -180 Level New York Center
08:49AM 39.8608 -75.7903 237° Southwest 333 383 21,700 -600 Descending New York Center
08:50AM 39.8064 -75.8892 234° Southwest 333 383 20,900 -840 Descending New York Center
08:51AM 39.7625 -75.9858 239° Southwest 328 377 20,100 -840 Descending New York Center
08:52AM 39.7642 -76.0939 271° West 301 346 19,300 -900 Descending New York Center
08:53AM 39.7692 -76.2106 273° West 292 336 18,400 -720 Descending New York Center
08:55AM 39.7167 -76.4167 252° West 295 339 17,200 -780 Descending Potomac TRACON
08:56AM 39.6667 -76.4833 226° Southwest 308 354 16,200 -1,740 Descending Potomac TRACON
08:57AM 39.5833 -76.5167 197° South 320 368 13,800 -2,220 Descending Potomac TRACON
08:58AM 39.5000 -76.5500 197° South 316 364 12,000 -960 Descending Potomac TRACON
08:59AM 39.4167 -76.5833 197° South 289 333 12,000  Level Potomac TRACON
09:00AM 39.3333 -76.6000 189° South 292 336 12,000 -120 Level Potomac TRACON
09:01AM 39.2667 -76.6333 201° Southwest 259 298 11,800 -720 Descending Potomac TRACON
09:02AM 39.2167 -76.6500 194° South 258 297 10,700 -960 Descending Potomac TRACON
09:03AM 39.1500 -76.6833 201° Southwest 241 277 10,000 -420 Descending Potomac TRACON
09:04AM 39.1000 -76.7333 218° Southwest 224 258 10,000 -360 Level Potomac TRACON
09:05AM 39.0667 -76.7833 229° Southwest 212 244 9,400 -720 Descending Potomac TRACON
09:06AM 39.0167 -76.8333 218° Southwest 210 242 8,700 -780 Descending Potomac TRACON
09:07AM 39.0333 -76.9167 284° West 207 238 8,000 -360 Descending Potomac TRACON
09:08AM 39.0667 -76.9833 303° West 204 235 8,000  Level Potomac TRACON
09:09AM 39.0833 -77.0500 288° West 210 242 8,100 -60 Climbing Potomac TRACON
09:10AM 39.0333 -77.0333 165° South 222 255 7,900 -540 Descending Potomac TRACON
09:11AM 39.0000 -76.9833 131° Southeast 208 239 7,100 -480 Descending Potomac TRACON
09:12AM 38.9500 -76.9333 142° Southeast 207 238 7,000 -300 Descending Potomac TRACON
09:13AM 38.9167 -76.9000 142° Southeast 193 222 6,600 -540 Descending Potomac TRACON
09:14AM 38.8833 -76.9333 218° Southwest 209 241 6,000 -360 Descending Potomac TRACON
09:15AM 38.9333 -76.9667 333° Northwest 201 231 6,000  Level Potomac TRACON
09:16AM 38.9833 -76.9833 345° North 198 228 6,000  Level Potomac TRACON
09:17AM 39.0333 -77.0167 333° Northwest 199 229 6,000 -540 Level Potomac TRACON
09:18AM 39.0500 -77.0833 288° West 182 209 5,000 -1,140 Descending Potomac TRACON
09:19AM 39.0500 -77.1500 270° West 173 199 3,800 -900 Descending Potomac TRACON
09:20AM 39.0167 -77.1833 218° Southwest 148 170 3,300 -540 Descending Potomac TRACON
09:21AM 38.9833 -77.1667 159° South 150 173 2,800 -540 Descending Potomac TRACON